Terminal Aerodrome Forecast
Issued by NWS Medford, OR

Home | Current Version | Previous Version | Text Only | Print | Product List | Glossary On
Versions: 1 2 3 4 5 6 7 8 9 10 11 12 13 14 15 16 17 18 19 20 21
000
FTUS46 KMFR 302349
TAFMFR
TAF
KMFR 302349Z 3100/3124 VRB03KT P6SM SKC
     FM310400 00000KT 5SM BR MIFG SKC
     FM310700 00000KT 2SM BR BCFG SCT001 BKN003
     FM310900 00000KT 1/4SM FG VV002
     FM311800 00000KT 2SM BR OVC003
     FM312000 VRB03KT P6SM FEW250=

USA.gov is the U.S. government's official web portal to all federal, state and local government web resources and services.